createdAt,value
2022-11-05T00:00:19.143Z,4.50
2022-11-05T00:03:05.159Z,4.30
2022-11-05T00:05:51.068Z,5.18
2022-11-05T00:08:36.273Z,4.25
2022-11-05T00:11:03.237Z,4.20
2022-11-05T00:13:48.471Z,5.40
2022-11-05T00:16:33.901Z,4.65
2022-11-05T00:19:06.692Z,4.45
2022-11-05T00:21:53.666Z,4.40
2022-11-05T00:24:39.521Z,4.22
2022-11-05T00:27:06.763Z,4.88
2022-11-05T00:29:34.186Z,4.32
2022-11-05T00:32:01.556Z,4.60
2022-11-05T00:34:28.516Z,4.95
2022-11-05T00:36:56.538Z,4.63
2022-11-05T00:39:23.480Z,4.60
2022-11-05T00:42:10.384Z,4.38
2022-11-05T00:44:55.788Z,4.32
2022-11-05T00:47:41.155Z,4.03
2022-11-05T00:50:10.652Z,4.82
2022-11-05T00:52:56.791Z,4.43
2022-11-05T00:55:35.681Z,4.65
2022-11-05T00:58:04.993Z,4.63
2022-11-05T01:00:33.625Z,4.80
2022-11-05T01:06:50.356Z,4.20
2022-11-05T01:09:17.354Z,4.45
2022-11-05T01:11:46.092Z,4.57
2022-11-05T01:14:15.999Z,4.43
2022-11-05T01:16:43.246Z,4.68
2022-11-05T01:19:11.362Z,4.53
2022-11-05T01:21:38.731Z,4.53
2022-11-05T01:24:05.938Z,4.35
2022-11-05T01:26:32.924Z,5.15
2022-11-05T01:29:00.617Z,4.80
2022-11-05T01:31:28.700Z,4.30
2022-11-05T01:33:55.655Z,4.18
2022-11-05T01:36:22.757Z,4.03
2022-11-05T01:38:49.755Z,4.18
2022-11-05T01:41:17.834Z,4.15
2022-11-05T01:43:51.420Z,4.47
2022-11-05T01:46:23.167Z,5.03
2022-11-05T01:48:54.434Z,4.38
2022-11-05T01:51:26.938Z,4.53
2022-11-05T01:54:05.698Z,4.47
2022-11-05T01:56:40.979Z,4.05
2022-11-05T01:59:30.931Z,4.13
2022-11-05T02:01:59.310Z,3.33
2022-11-05T02:04:40.161Z,3.75
2022-11-05T02:07:09.401Z,4.47
2022-11-05T02:09:45.235Z,4.38
2022-11-05T02:12:14.574Z,4.40
2022-11-05T02:14:41.438Z,4.05
2022-11-05T02:17:35.560Z,4.75
2022-11-05T02:20:51.854Z,4.57
2022-11-05T02:23:41.989Z,3.58
2022-11-05T02:26:53.279Z,4.57
2022-11-05T02:29:55.170Z,4.00
2022-11-05T02:32:49.604Z,3.78
2022-11-05T02:35:31.242Z,3.60
2022-11-05T02:38:10.500Z,4.20
2022-11-05T02:41:03.029Z,5.00
2022-11-05T02:43:46.962Z,4.55
2022-11-05T02:46:26.883Z,4.82
2022-11-05T02:49:08.830Z,4.68
2022-11-05T02:51:44.603Z,4.65
2022-11-05T02:54:34.013Z,4.90
2022-11-05T02:57:03.468Z,5.15
2022-11-05T02:59:30.877Z,4.00
2022-11-05T03:02:00.552Z,4.70
2022-11-05T03:04:28.494Z,4.50
2022-11-05T03:07:06.679Z,4.80
2022-11-05T03:09:58.867Z,4.40
2022-11-05T03:12:52.814Z,4.05
2022-11-05T03:15:25.549Z,5.00
2022-11-05T03:18:09.206Z,4.57
2022-11-05T03:21:02.914Z,4.70
2022-11-05T03:23:44.097Z,5.20
2022-11-05T03:26:17.635Z,4.97
2022-11-05T03:28:50.575Z,4.78
2022-11-05T03:31:19.565Z,4.45
2022-11-05T03:33:48.430Z,4.95
2022-11-05T03:36:21.848Z,4.90
2022-11-05T03:38:52.977Z,4.72
2022-11-05T03:41:22.151Z,4.65
2022-11-05T03:43:54.057Z,4.85
2022-11-05T03:46:29.354Z,4.53
2022-11-05T03:48:59.064Z,5.65
2022-11-05T03:51:49.150Z,5.10
2022-11-05T03:54:16.217Z,4.93
2022-11-05T03:56:58.218Z,5.00
2022-11-05T03:59:26.161Z,4.90
2022-11-05T04:01:53.972Z,4.70
2022-11-05T04:04:21.019Z,4.85
2022-11-05T04:07:06.306Z,4.65
2022-11-05T04:09:51.756Z,4.50
2022-11-05T04:12:37.134Z,5.18
2022-11-05T04:15:04.435Z,4.63
2022-11-05T04:17:31.334Z,4.47
2022-11-05T04:20:17.087Z,4.57
2022-11-05T04:23:02.485Z,5.05
2022-11-05T04:25:29.454Z,4.65
2022-11-05T04:28:00.532Z,4.90
2022-11-05T04:30:27.548Z,4.50
2022-11-05T04:33:00.319Z,4.50
2022-11-05T04:35:39.362Z,4.63
2022-11-05T04:38:09.195Z,4.95
2022-11-05T04:40:36.862Z,4.68
2022-11-05T04:43:04.605Z,4.03
2022-11-05T04:45:34.420Z,4.20
2022-11-05T04:48:02.687Z,4.15
2022-11-05T04:50:29.800Z,4.43
2022-11-05T04:52:57.148Z,4.35
2022-11-05T04:55:24.228Z,4.57
2022-11-05T04:57:52.285Z,3.88
2022-11-05T05:00:20.723Z,4.07
2022-11-05T05:02:48.326Z,4.38
2022-11-05T05:05:15.285Z,3.88
2022-11-05T05:07:42.547Z,4.32
2022-11-05T05:10:10.602Z,4.03
2022-11-05T05:12:37.584Z,4.88
2022-11-05T05:15:04.898Z,5.90
2022-11-05T05:17:31.834Z,5.07
2022-11-05T05:20:17.504Z,5.13
2022-11-05T05:22:44.498Z,4.60
2022-11-05T05:25:11.396Z,4.93
2022-11-05T05:27:38.355Z,4.13
2022-11-05T05:30:05.723Z,4.22
2022-11-05T05:32:33.018Z,3.70
2022-11-05T05:34:59.918Z,3.55
2022-11-05T05:37:26.847Z,4.30
2022-11-05T05:39:53.760Z,4.22
2022-11-05T05:42:22.922Z,3.90
2022-11-05T05:44:49.806Z,4.07
2022-11-05T05:47:16.746Z,4.88
2022-11-05T05:49:43.645Z,3.75
2022-11-05T05:52:10.623Z,4.18
2022-11-05T05:54:42.483Z,3.80
2022-11-05T05:57:10.507Z,3.70
2022-11-05T05:59:37.432Z,3.97
2022-11-05T06:02:04.583Z,3.30
2022-11-05T06:04:31.575Z,3.58
2022-11-05T06:06:58.485Z,3.75
2022-11-05T06:09:25.386Z,3.78
2022-11-05T06:11:52.375Z,4.40
2022-11-05T06:14:19.279Z,3.78
2022-11-05T06:16:46.254Z,3.20
2022-11-05T06:19:13.392Z,4.07
2022-11-05T06:21:40.355Z,4.65
2022-11-05T06:24:07.689Z,4.35
2022-11-05T06:26:34.645Z,4.85
2022-11-05T06:29:01.560Z,4.97
2022-11-05T06:31:28.592Z,4.20
2022-11-05T06:33:55.518Z,4.28
2022-11-05T06:36:22.491Z,4.60
2022-11-05T06:38:49.497Z,4.50
2022-11-05T06:41:16.456Z,4.90
2022-11-05T06:43:43.428Z,4.90
2022-11-05T06:46:11.541Z,5.15
2022-11-05T06:48:38.775Z,5.40
2022-11-05T06:51:07.145Z,4.68
2022-11-05T06:53:34.789Z,5.10
2022-11-05T06:56:07.209Z,5.60
2022-11-05T06:58:34.341Z,6.22
2022-11-05T07:01:05.257Z,5.72
2022-11-05T07:03:32.423Z,5.63
2022-11-05T07:06:00.890Z,6.15
2022-11-05T07:08:32.461Z,5.85
2022-11-05T07:11:00.134Z,5.10
2022-11-05T07:13:27.320Z,5.93
2022-11-05T07:15:54.498Z,6.20
2022-11-05T07:18:21.477Z,6.88
2022-11-05T07:20:49.246Z,6.45
2022-11-05T07:23:16.746Z,6.20
2022-11-05T07:25:44.156Z,6.43
2022-11-05T07:28:11.503Z,6.90
2022-11-05T07:30:38.580Z,6.35
2022-11-05T07:33:05.507Z,6.32
2022-11-05T07:35:32.607Z,6.38
2022-11-05T07:37:59.654Z,6.32
2022-11-05T07:40:28.768Z,6.75
2022-11-05T07:42:58.109Z,6.72
2022-11-05T07:45:26.606Z,6.68
2022-11-05T07:48:04.389Z,7.97
2022-11-05T07:50:36.279Z,7.88
2022-11-05T07:53:10.027Z,10.43
2022-11-05T07:58:04.513Z,7.43
2022-11-05T08:00:31.556Z,8.27
2022-11-05T08:03:18.515Z,8.35
2022-11-05T08:05:47.408Z,8.40
2022-11-05T08:08:19.167Z,9.23
2022-11-05T08:10:46.994Z,9.85
2022-11-05T08:13:15.083Z,9.70
2022-11-05T08:15:43.334Z,10.45
2022-11-05T08:18:16.134Z,9.82
2022-11-05T08:20:44.978Z,9.82
2022-11-05T08:23:12.454Z,8.65
2022-11-05T08:25:40.265Z,9.05
2022-11-05T08:28:10.688Z,8.95
2022-11-05T08:30:37.674Z,9.30
2022-11-05T08:33:07.380Z,9.23
2022-11-05T08:35:35.208Z,8.77
2022-11-05T08:38:04.030Z,13.65
2022-11-05T08:40:33.122Z,15.82
2022-11-05T08:43:02.656Z,18.38
2022-11-05T08:45:30.876Z,13.63
2022-11-05T08:48:04.846Z,11.05
2022-11-05T08:52:59.415Z,9.23
2022-11-05T08:55:27.225Z,9.65
2022-11-05T08:58:07.451Z,9.60
2022-11-05T09:00:36.676Z,9.27
2022-11-05T09:03:05.866Z,9.50
2022-11-05T09:05:38.283Z,8.70
2022-11-05T09:08:13.647Z,9.63
2022-11-05T09:10:41.370Z,9.48
2022-11-05T09:13:13.055Z,9.88
2022-11-05T09:15:43.829Z,9.65
2022-11-05T09:18:13.962Z,10.50
2022-11-05T09:20:41.299Z,9.38
2022-11-05T09:23:09.842Z,9.30
2022-11-05T09:25:36.999Z,8.93
2022-11-05T09:28:16.502Z,8.70
2022-11-05T09:30:49.990Z,9.65
2022-11-05T09:33:19.384Z,9.60
2022-11-05T09:35:46.804Z,9.27
2022-11-05T09:38:14.223Z,8.40
2022-11-05T09:41:00.930Z,8.43
2022-11-05T09:43:40.611Z,8.27
2022-11-05T09:46:39.647Z,8.52
2022-11-05T09:49:20.579Z,8.60
2022-11-05T09:51:47.718Z,8.75
2022-11-05T09:54:15.475Z,10.10
2022-11-05T09:56:42.803Z,9.27
2022-11-05T09:59:20.738Z,11.40
2022-11-05T10:01:48.806Z,10.23
2022-11-05T10:04:26.241Z,10.30
2022-11-05T10:06:59.936Z,9.55
2022-11-05T10:09:40.256Z,9.13
2022-11-05T10:12:16.843Z,7.18
2022-11-05T10:14:50.429Z,7.53
2022-11-05T10:17:17.396Z,7.20
2022-11-05T10:20:09.791Z,6.60
2022-11-05T10:22:37.526Z,7.05
2022-11-05T10:25:17.300Z,6.95
2022-11-05T10:27:52.677Z,6.38
2022-11-05T10:30:20.617Z,6.80
2022-11-05T10:32:49.198Z,7.22
2022-11-05T10:35:22.476Z,6.72
2022-11-05T10:37:50.486Z,6.97
2022-11-05T10:40:17.375Z,7.00
2022-11-05T10:42:58.723Z,8.18
2022-11-05T10:45:37.038Z,6.65
2022-11-05T10:48:21.992Z,7.00
2022-11-05T10:50:49.084Z,6.28
2022-11-05T10:53:23.005Z,6.68
2022-11-05T10:58:20.940Z,7.43
2022-11-05T11:00:53.626Z,7.00
2022-11-05T11:03:41.872Z,6.68
2022-11-05T11:06:26.725Z,6.22
2022-11-05T11:08:56.738Z,6.50
2022-11-05T11:11:34.126Z,6.30
2022-11-05T11:14:04.533Z,5.85
2022-11-05T11:16:42.967Z,5.53
2022-11-05T11:19:34.080Z,5.90
2022-11-05T11:22:04.071Z,5.10
2022-11-05T11:24:37.697Z,6.55
2022-11-05T11:27:18.794Z,5.75
2022-11-05T11:29:55.426Z,6.13
2022-11-05T11:32:25.743Z,5.35
2022-11-05T11:34:58.429Z,6.18
2022-11-05T11:37:30.607Z,5.47
2022-11-05T11:40:05.361Z,5.22
2022-11-05T11:42:36.005Z,5.53
2022-11-05T11:45:29.975Z,5.60
2022-11-05T11:47:58.000Z,5.22
2022-11-05T11:50:41.302Z,5.47
2022-11-05T11:53:20.475Z,5.68
2022-11-05T11:56:02.390Z,5.00
2022-11-05T11:58:45.215Z,4.85
2022-11-05T12:01:47.241Z,5.45
2022-11-05T12:04:31.491Z,5.40
2022-11-05T12:07:24.685Z,5.22
2022-11-05T12:10:03.551Z,4.00
2022-11-05T12:12:54.422Z,4.60
2022-11-05T12:15:24.307Z,3.90
2022-11-05T12:17:59.713Z,3.65
2022-11-05T12:20:38.482Z,3.28
2022-11-05T12:23:23.022Z,2.72
2022-11-05T12:26:09.002Z,3.15
2022-11-05T12:29:04.654Z,3.00
2022-11-05T12:31:28.440Z,3.55
2022-11-05T12:34:19.194Z,2.90
2022-11-05T12:37:04.075Z,2.90
2022-11-05T12:40:04.205Z,3.15
2022-11-05T12:42:38.996Z,2.67
2022-11-05T12:45:38.850Z,2.78
2022-11-05T12:48:11.902Z,3.00
2022-11-05T12:50:38.859Z,2.53
2022-11-05T12:53:05.717Z,2.25
2022-11-05T12:55:48.075Z,2.13
2022-11-05T12:58:18.347Z,2.25
2022-11-05T13:00:52.232Z,2.65
2022-11-05T13:06:03.036Z,2.10
2022-11-05T13:09:01.860Z,2.30
2022-11-05T13:11:47.607Z,2.80
2022-11-05T13:14:19.706Z,2.53
2022-11-05T13:16:54.161Z,2.33
2022-11-05T13:19:31.147Z,2.15
2022-11-05T13:22:36.097Z,2.83
2022-11-05T13:27:50.477Z,2.72
2022-11-05T13:30:21.808Z,3.65
2022-11-05T13:32:56.832Z,2.00
2022-11-05T13:35:35.906Z,2.10
2022-11-05T13:38:24.895Z,2.15
2022-11-05T13:41:13.010Z,2.00
2022-11-05T13:44:00.935Z,2.10
2022-11-05T13:47:11.892Z,2.38
2022-11-05T13:49:56.704Z,2.55
2022-11-05T13:52:38.690Z,2.30
2022-11-05T13:55:39.702Z,2.30
2022-11-05T13:58:28.047Z,2.20
2022-11-05T14:01:16.655Z,2.58
2022-11-05T14:03:52.594Z,2.33
2022-11-05T14:06:29.414Z,2.92
2022-11-05T14:09:00.251Z,2.28
2022-11-05T14:11:33.829Z,3.03
2022-11-05T14:14:05.346Z,2.08
2022-11-05T14:17:12.882Z,2.83
2022-11-05T14:20:04.590Z,2.58
2022-11-05T14:22:31.529Z,4.78
2022-11-05T14:24:59.927Z,2.30
2022-11-05T14:27:29.906Z,2.70
2022-11-05T14:29:57.312Z,2.15
2022-11-05T14:32:45.626Z,2.60
2022-11-05T14:35:18.468Z,2.42
2022-11-05T14:37:56.339Z,2.25
2022-11-05T14:40:36.522Z,2.50
2022-11-05T14:43:08.464Z,2.28
2022-11-05T14:45:42.361Z,2.20
2022-11-05T14:48:37.573Z,2.20
2022-11-05T14:51:27.944Z,2.28
2022-11-05T14:54:02.695Z,1.95
2022-11-05T14:56:40.649Z,2.35
2022-11-05T14:59:25.440Z,2.42
2022-11-05T15:01:57.163Z,2.20
2022-11-05T15:04:36.183Z,2.20
2022-11-05T15:07:03.211Z,2.95
2022-11-05T15:09:54.149Z,2.80
2022-11-05T15:12:35.911Z,2.33
2022-11-05T15:15:21.892Z,2.50
2022-11-05T15:18:05.717Z,2.22
2022-11-05T15:20:45.153Z,2.47
2022-11-05T15:23:16.920Z,2.40
2022-11-05T15:25:53.494Z,2.50
2022-11-05T15:28:35.656Z,2.95
2022-11-05T15:31:12.782Z,3.17
2022-11-05T15:33:44.647Z,3.30
2022-11-05T15:36:31.808Z,3.25
2022-11-05T15:39:27.943Z,3.67
2022-11-05T15:41:47.252Z,2.90
2022-11-05T15:44:38.226Z,3.30
2022-11-05T15:47:12.727Z,3.10
2022-11-05T15:49:41.862Z,2.38
2022-11-05T15:52:12.079Z,2.47
2022-11-05T15:54:39.125Z,2.70
2022-11-05T15:57:14.926Z,3.08
2022-11-05T15:59:46.555Z,2.30
2022-11-05T16:02:33.679Z,3.25
2022-11-05T16:05:06.651Z,2.97
2022-11-05T16:07:33.899Z,2.80
2022-11-05T16:10:02.195Z,2.80
2022-11-05T16:12:36.916Z,2.80
2022-11-05T16:15:25.585Z,2.33
2022-11-05T16:17:56.462Z,2.67
2022-11-05T16:20:26.610Z,3.20
2022-11-05T16:22:59.683Z,2.83
2022-11-05T16:25:53.158Z,3.17
2022-11-05T16:28:26.344Z,2.95
2022-11-05T16:30:58.019Z,2.73
2022-11-05T16:33:34.050Z,2.70
2022-11-05T16:36:01.151Z,3.00
2022-11-05T16:38:28.146Z,2.53
2022-11-05T16:40:55.111Z,3.13
2022-11-05T16:43:24.556Z,2.63
2022-11-05T16:45:57.654Z,2.97
2022-11-05T16:48:25.547Z,3.07
2022-11-05T16:50:53.137Z,3.13
2022-11-05T16:53:20.510Z,2.65
2022-11-05T16:55:47.793Z,2.83
2022-11-05T16:58:23.402Z,2.50
2022-11-05T17:00:52.498Z,2.40
2022-11-05T17:03:19.656Z,2.63
2022-11-05T17:05:47.050Z,2.75
2022-11-05T17:08:14.317Z,2.70
2022-11-05T17:10:41.483Z,2.30
2022-11-05T17:13:13.082Z,2.45
2022-11-05T17:15:40.122Z,2.72
2022-11-05T17:18:07.112Z,3.53
2022-11-05T17:20:40.295Z,3.10
2022-11-05T17:23:10.724Z,3.30
2022-11-05T17:25:38.939Z,2.80
2022-11-05T17:28:06.704Z,3.35
2022-11-05T17:30:33.845Z,2.90
2022-11-05T17:33:01.080Z,2.60
2022-11-05T17:35:28.112Z,2.95
2022-11-05T17:37:54.994Z,3.08
2022-11-05T17:40:22.880Z,3.50
2022-11-05T17:42:51.088Z,3.13
2022-11-05T17:45:18.486Z,2.90
2022-11-05T17:47:45.827Z,3.15
2022-11-05T17:50:14.898Z,3.60
2022-11-05T17:52:42.213Z,3.55
2022-11-05T17:55:16.671Z,3.05
2022-11-05T17:57:48.548Z,2.97
2022-11-05T18:00:21.427Z,3.03
2022-11-05T18:02:49.702Z,3.05
2022-11-05T18:05:21.720Z,3.30
2022-11-05T18:07:49.893Z,3.17
2022-11-05T18:10:17.317Z,3.47
2022-11-05T18:12:44.875Z,3.75
2022-11-05T18:15:13.068Z,3.28
2022-11-05T18:17:40.178Z,3.08
2022-11-05T18:20:14.223Z,3.28
2022-11-05T18:22:45.063Z,3.45
2022-11-05T18:25:12.491Z,3.38
2022-11-05T18:27:40.517Z,3.22
2022-11-05T18:30:08.924Z,3.78
2022-11-05T18:32:36.602Z,2.97
2022-11-05T18:35:03.623Z,3.65
2022-11-05T18:37:30.584Z,3.00
2022-11-05T18:39:57.503Z,3.10
2022-11-05T18:42:25.373Z,2.97
2022-11-05T18:44:52.533Z,2.90
2022-11-05T18:47:19.562Z,3.42
2022-11-05T18:49:46.487Z,3.25
2022-11-05T18:52:13.686Z,3.33
2022-11-05T18:54:40.777Z,3.10
2022-11-05T18:57:07.783Z,3.50
2022-11-05T18:59:38.560Z,3.10
2022-11-05T19:02:07.984Z,3.13
2022-11-05T19:04:36.301Z,3.40
2022-11-05T19:07:05.522Z,3.17
2022-11-05T19:09:34.325Z,3.13
2022-11-05T19:12:02.093Z,3.60
2022-11-05T19:14:30.203Z,2.60
2022-11-05T19:17:00.726Z,3.20
2022-11-05T19:19:28.190Z,3.08
2022-11-05T19:21:55.120Z,3.00
2022-11-05T19:24:22.181Z,3.60
2022-11-05T19:26:49.082Z,2.70
2022-11-05T19:29:16.351Z,2.88
2022-11-05T19:31:43.352Z,2.85
2022-11-05T19:34:10.379Z,2.80
2022-11-05T19:36:37.270Z,3.13
2022-11-05T19:39:08.843Z,2.67
2022-11-05T19:41:35.967Z,3.35
2022-11-05T19:44:03.194Z,3.42
2022-11-05T19:46:31.601Z,3.05
2022-11-05T19:49:00.906Z,3.60
2022-11-05T19:51:30.884Z,3.88
2022-11-05T19:54:00.554Z,3.55
2022-11-05T19:56:29.900Z,3.97
2022-11-05T19:58:57.607Z,3.60
2022-11-05T20:01:26.445Z,4.28
2022-11-05T20:03:55.233Z,4.85
2022-11-05T20:06:28.812Z,4.63
2022-11-05T20:11:49.877Z,3.70
2022-11-05T20:14:17.568Z,4.65
2022-11-05T20:16:46.024Z,4.22
2022-11-05T20:19:20.161Z,3.75
2022-11-05T20:21:47.890Z,3.65
2022-11-05T20:24:22.438Z,4.85
2022-11-05T20:26:52.900Z,3.97
2022-11-05T20:29:19.932Z,3.97
2022-11-05T20:31:47.224Z,4.07
2022-11-05T20:34:14.168Z,4.32
2022-11-05T20:36:41.473Z,3.50
2022-11-05T20:39:08.380Z,3.92
2022-11-05T20:41:35.390Z,4.53
2022-11-05T20:44:02.310Z,4.20
2022-11-05T20:46:29.289Z,4.57
2022-11-05T20:48:56.697Z,4.57
2022-11-05T20:51:25.346Z,4.15
2022-11-05T20:54:00.901Z,4.70
2022-11-05T20:56:30.573Z,4.20
2022-11-05T20:58:59.154Z,4.55
2022-11-05T21:01:32.203Z,4.55
2022-11-05T21:03:59.841Z,4.60
2022-11-05T21:06:27.118Z,4.55
2022-11-05T21:08:54.510Z,4.50
2022-11-05T21:11:21.476Z,4.57
2022-11-05T21:13:48.826Z,4.97
2022-11-05T21:16:18.495Z,4.90
2022-11-05T21:18:47.224Z,5.40
2022-11-05T21:21:19.604Z,4.72
2022-11-05T21:23:46.912Z,5.07
2022-11-05T21:26:15.294Z,4.72
2022-11-05T21:28:42.344Z,4.78
2022-11-05T21:31:09.410Z,4.97
2022-11-05T21:33:36.708Z,4.72
2022-11-05T21:36:10.277Z,5.38
2022-11-05T21:38:37.851Z,6.00
2022-11-05T21:41:05.838Z,5.53
2022-11-05T21:43:33.125Z,4.93
2022-11-05T21:46:04.431Z,5.90
2022-11-05T21:48:32.251Z,4.97
2022-11-05T21:51:18.040Z,4.97
2022-11-05T21:54:03.319Z,5.63
2022-11-05T21:56:49.302Z,5.70
2022-11-05T21:59:38.183Z,6.32
2022-11-05T22:02:05.762Z,5.55
2022-11-05T22:04:35.821Z,5.28
2022-11-05T22:07:03.583Z,6.30
2022-11-05T22:09:30.593Z,5.82
2022-11-05T22:11:58.112Z,5.82
2022-11-05T22:14:25.654Z,6.05
2022-11-05T22:16:52.897Z,5.85
2022-11-05T22:19:21.754Z,5.80
2022-11-05T22:21:48.933Z,5.45
2022-11-05T22:24:16.113Z,5.63
2022-11-05T22:26:43.649Z,5.85
2022-11-05T22:29:10.782Z,5.90
2022-11-05T22:31:37.979Z,5.22
2022-11-05T22:34:06.408Z,5.22
2022-11-05T22:36:34.974Z,5.10
2022-11-05T22:39:02.639Z,5.40
2022-11-05T22:41:30.258Z,6.38
2022-11-05T22:43:57.910Z,5.72
2022-11-05T22:46:26.439Z,6.10
2022-11-05T22:48:54.012Z,6.05
2022-11-05T22:51:27.266Z,5.80
2022-11-05T22:53:57.247Z,6.47
2022-11-05T22:56:29.913Z,6.35
2022-11-05T22:58:57.898Z,6.28
2022-11-05T23:01:25.373Z,6.70
2022-11-05T23:03:54.030Z,6.93
2022-11-05T23:06:46.299Z,6.97
2022-11-05T23:09:31.679Z,6.78
2022-11-05T23:11:59.590Z,5.97
2022-11-05T23:14:27.147Z,6.75
2022-11-05T23:17:12.999Z,6.68
2022-11-05T23:19:59.362Z,6.82
2022-11-05T23:22:47.364Z,6.28
2022-11-05T23:25:17.305Z,6.85
2022-11-05T23:27:46.345Z,6.70
2022-11-05T23:30:17.197Z,6.80
2022-11-05T23:32:44.185Z,6.68
2022-11-05T23:35:11.727Z,7.03
2022-11-05T23:37:57.338Z,6.82
2022-11-05T23:40:51.636Z,7.05
2022-11-05T23:43:37.210Z,6.85
2022-11-05T23:46:22.502Z,7.07
2022-11-05T23:48:50.716Z,7.00
2022-11-05T23:51:17.777Z,7.05
2022-11-05T23:53:44.718Z,7.32
2022-11-05T23:56:15.842Z,7.57
2022-11-05T23:58:42.955Z,6.88
